Geronimo, Texas
Current Conditions -  °F | °C
As of 1:51 AM on Tuesday 21 Oct 2014 (Local Time) from KBAZ Reporting Station
Clear Clear  
Wind Chill: 66°   Ceiling: Unl
Heat Index: 66°   Visibility: 10mi
Dew Point: 61°   Wind: 6mph
Humidity: 84%   Direction: 50°NE
Pressure: 30.01"   Gusts: NA
Location:  29.66°N, 97.97°W
Report Text: KBAZ 210651Z AUTO 05005KT 10SM CLR 19/16 A3001 RMK AO2 SLP156 T01890161
Loading
Personal Weather Stations






























Interactive Weather Map
Tropical Storm Tracking
New forecast layout! Learn more

10-Day Weather Forecast

Advertisements
Track Severe Weather on mobile